createdAt,value
2022-08-20T00:01:08.984Z,100252.16
2022-08-20T00:06:06.348Z,100238.81
2022-08-20T00:08:34.420Z,100249.91
2022-08-20T00:11:05.270Z,100250.53
2022-08-20T00:13:37.229Z,100254.72
2022-08-20T00:16:06.289Z,100254.28
2022-08-20T00:18:36.953Z,100255.59
2022-08-20T00:21:08.443Z,100259.13
2022-08-20T00:23:37.549Z,100258.72
2022-08-20T00:26:07.492Z,100266.91
2022-08-20T00:28:35.547Z,100261.25
2022-08-20T00:31:05.313Z,100261.25
2022-08-20T00:33:33.204Z,100268.38
2022-08-20T00:40:59.760Z,100261.94
2022-08-20T00:43:34.317Z,100275.31
2022-08-20T00:46:06.197Z,100275.06
2022-08-20T00:48:36.609Z,100273.41
2022-08-20T00:53:37.475Z,100269.88
2022-08-20T00:56:07.177Z,100272.59
2022-08-20T00:58:37.983Z,100274.44
2022-08-20T01:01:07.298Z,100278.66
2022-08-20T01:03:35.673Z,100275.94
2022-08-20T01:06:03.550Z,100280.31
2022-08-20T01:08:31.450Z,100278.25
2022-08-20T01:11:09.925Z,100284.31
2022-08-20T01:13:40.367Z,100278.69
2022-08-20T01:16:16.515Z,100280.34
2022-08-20T01:18:48.299Z,100281.22
2022-08-20T01:21:18.834Z,100282.69
2022-08-20T01:24:00.670Z,100288.75
2022-08-20T01:29:30.420Z,100290.00
2022-08-20T01:32:01.521Z,100294.41
2022-08-20T01:34:29.981Z,100288.75
2022-08-20T01:36:59.280Z,100289.38
2022-08-20T01:39:31.962Z,100293.97
2022-08-20T01:42:08.558Z,100294.81
2022-08-20T01:44:40.001Z,100299.84
2022-08-20T01:49:44.061Z,100309.00
2022-08-20T01:54:37.304Z,100297.53
2022-08-20T01:57:08.254Z,100296.69
2022-08-20T02:02:20.314Z,100302.31
2022-08-20T02:04:48.427Z,100311.09
2022-08-20T02:07:19.500Z,100317.38
2022-08-20T02:09:47.804Z,100316.53
2022-08-20T02:12:16.664Z,100311.31
2022-08-20T02:14:46.169Z,100316.53
2022-08-20T02:17:15.162Z,100319.22
2022-08-20T02:19:48.280Z,100313.19
2022-08-20T02:24:41.448Z,100321.53
2022-08-20T02:27:09.420Z,100315.47
2022-08-20T02:29:37.390Z,100320.03
2022-08-20T02:32:32.581Z,100325.69
2022-08-20T02:34:55.805Z,100329.25
2022-08-20T02:37:23.603Z,100331.31
2022-08-20T02:39:51.483Z,100322.53
2022-08-20T02:42:19.754Z,100324.19
2022-08-20T02:44:47.740Z,100316.25
2022-08-20T02:47:17.271Z,100321.69
2022-08-20T02:49:45.286Z,100320.03
2022-08-20T02:52:14.635Z,100321.06
2022-08-20T02:54:42.534Z,100325.44
2022-08-20T02:57:14.137Z,100324.63
2022-08-20T02:59:42.188Z,100331.91
2022-08-20T03:02:10.081Z,100328.16
2022-08-20T03:04:38.022Z,100327.34
2022-08-20T03:07:07.317Z,100325.66
2022-08-20T03:09:36.670Z,100334.41
2022-08-20T03:12:04.939Z,100322.53
2022-08-20T03:14:32.857Z,100324.41
2022-08-20T03:17:00.838Z,100319.19
2022-08-20T03:19:29.004Z,100316.47
2022-08-20T03:21:57.307Z,100324.63
2022-08-20T03:24:25.275Z,100319.19
2022-08-20T03:26:54.644Z,100329.19
2022-08-20T03:29:22.582Z,100329.59
2022-08-20T03:31:50.492Z,100326.06
2022-08-20T03:34:18.528Z,100320.81
2022-08-20T03:36:46.454Z,100326.91
2022-08-20T03:39:14.409Z,100327.91
2022-08-20T03:41:42.341Z,100332.50
2022-08-20T03:44:11.680Z,100327.72
2022-08-20T03:46:40.274Z,100330.44
2022-08-20T03:49:08.190Z,100330.25
2022-08-20T03:51:51.478Z,100322.53
2022-08-20T03:54:24.067Z,100328.81
2022-08-20T03:59:23.568Z,100331.50
2022-08-20T04:01:52.410Z,100343.00
2022-08-20T04:04:20.741Z,100339.47
2022-08-20T04:06:48.960Z,100338.41
2022-08-20T04:09:17.234Z,100329.44
2022-08-20T04:14:11.271Z,100329.00
2022-08-20T04:16:41.472Z,100332.53
2022-08-20T04:19:09.541Z,100330.69
2022-08-20T04:21:38.160Z,100331.50
2022-08-20T04:24:07.113Z,100325.25
2022-08-20T04:29:00.391Z,100324.81
2022-08-20T04:31:33.801Z,100332.13
2022-08-20T04:34:04.531Z,100334.19
2022-08-20T04:36:32.653Z,100347.78
2022-08-20T04:39:00.552Z,100344.81
2022-08-20T04:41:27.526Z,100339.63
2022-08-20T04:43:57.317Z,100342.13
2022-08-20T04:49:10.825Z,100342.13
2022-08-20T04:51:39.053Z,100339.78
2022-08-20T04:54:07.419Z,100342.88
2022-08-20T04:56:38.965Z,100338.72
2022-08-20T04:59:08.283Z,100348.94
2022-08-20T05:01:36.731Z,100349.13
2022-08-20T05:04:05.205Z,100351.00
2022-08-20T05:06:34.603Z,100352.03
2022-08-20T05:09:02.572Z,100351.59
2022-08-20T05:11:36.011Z,100358.69
2022-08-20T05:14:08.229Z,100360.56
2022-08-20T05:16:39.220Z,100357.03
2022-08-20T05:19:08.928Z,100366.19
2022-08-20T05:21:38.655Z,100369.34
2022-08-20T05:24:06.825Z,100378.13
2022-08-20T05:29:17.709Z,100371.00
2022-08-20T05:31:45.591Z,100375.41
2022-08-20T05:34:13.847Z,100379.16
2022-08-20T05:36:46.857Z,100379.56
2022-08-20T05:39:16.941Z,100375.16
2022-08-20T05:41:44.891Z,100386.00
2022-08-20T05:44:15.208Z,100381.44
2022-08-20T05:46:45.550Z,100388.34
2022-08-20T05:49:16.440Z,100397.31
2022-08-20T05:51:46.350Z,100395.00
2022-08-20T05:54:15.388Z,100402.91
2022-08-20T05:59:10.533Z,100401.28
2022-08-20T06:01:40.100Z,100410.50
2022-08-20T06:04:27.028Z,100402.03
2022-08-20T06:06:58.616Z,100399.09
2022-08-20T06:09:31.678Z,100400.78
2022-08-20T06:12:01.772Z,100387.84
2022-08-20T06:14:30.587Z,100403.75
2022-08-20T06:17:04.727Z,100404.56
2022-08-20T06:19:33.949Z,100402.50
2022-08-20T06:30:02.780Z,100404.78
2022-08-20T06:35:19.772Z,100411.09
2022-08-20T06:54:18.125Z,100417.63
2022-08-20T07:07:49.599Z,100421.88
2022-08-20T07:10:18.759Z,100431.47
2022-08-20T07:12:50.084Z,100426.25
2022-08-20T07:50:58.969Z,100436.91
2022-08-20T07:53:28.602Z,100435.25
2022-08-20T07:55:59.590Z,100437.59
2022-08-20T07:58:27.688Z,100436.13
2022-08-20T08:01:01.657Z,100439.47
2022-08-20T08:03:40.825Z,100435.69
2022-08-20T08:06:29.046Z,100442.41
2022-08-20T08:09:01.078Z,100447.41
2022-08-20T08:11:29.735Z,100444.47
2022-08-20T08:13:57.713Z,100446.56
2022-08-20T08:16:25.618Z,100449.09
2022-08-20T08:18:56.882Z,100440.53
2022-08-20T08:21:26.345Z,100449.75
2022-08-20T08:23:54.157Z,100445.59
2022-08-20T08:26:22.373Z,100441.16
2022-08-20T08:28:50.786Z,100444.13
2022-08-20T08:31:18.593Z,100444.34
2022-08-20T08:33:46.433Z,100454.81
2022-08-20T08:36:16.299Z,100447.06
2022-08-20T08:38:47.032Z,100453.56
2022-08-20T08:41:20.567Z,100452.31
2022-08-20T08:43:53.309Z,100450.00
2022-08-20T08:46:27.534Z,100453.13
2022-08-20T08:48:58.889Z,100451.84
2022-08-20T08:51:33.943Z,100448.06
2022-08-20T08:54:06.919Z,100452.63
2022-08-20T08:56:36.108Z,100448.78
2022-08-20T08:59:07.722Z,100445.34
2022-08-20T09:04:31.772Z,100443.97
2022-08-20T09:07:02.795Z,100436.31
2022-08-20T09:09:36.869Z,100445.09
2022-08-20T09:12:07.050Z,100438.84
2022-08-20T09:14:35.046Z,100438.94
2022-08-20T09:17:03.026Z,100435.19
2022-08-20T09:19:31.897Z,100437.75
2022-08-20T09:22:00.012Z,100423.94
2022-08-20T09:24:27.866Z,100426.94
2022-08-20T09:29:35.956Z,100434.41
2022-08-20T09:32:08.471Z,100423.97
2022-08-20T09:34:38.344Z,100429.41
2022-08-20T09:37:06.162Z,100428.13
2022-08-20T09:39:33.986Z,100425.00
2022-08-20T09:42:09.315Z,100430.00
2022-08-20T09:44:38.744Z,100422.78
2022-08-20T09:47:07.157Z,100427.41
2022-08-20T09:49:36.777Z,100418.06
2022-08-20T09:52:07.874Z,100412.47
2022-08-20T09:54:37.143Z,100415.84
2022-08-20T09:57:08.553Z,100417.00
2022-08-20T09:59:38.541Z,100415.69
2022-08-20T10:02:06.609Z,100415.97
2022-08-20T10:04:34.498Z,100416.91
2022-08-20T10:07:02.286Z,100415.38
2022-08-20T10:09:30.066Z,100414.31
2022-08-20T10:11:57.840Z,100412.66
2022-08-20T10:14:26.079Z,100414.19
2022-08-20T10:16:59.888Z,100420.81
2022-08-20T10:19:30.216Z,100417.47
2022-08-20T10:21:59.591Z,100426.09
2022-08-20T10:24:28.114Z,100421.91
2022-08-20T10:26:58.680Z,100418.81
2022-08-20T10:29:27.842Z,100412.50
2022-08-20T10:31:57.942Z,100414.28
2022-08-20T10:34:26.481Z,100408.91
2022-08-20T10:36:54.327Z,100411.19
2022-08-20T10:39:22.363Z,100406.00
2022-08-20T10:41:50.155Z,100401.50
2022-08-20T10:44:18.724Z,100396.47
2022-08-20T10:46:48.048Z,100395.81
2022-08-20T10:49:17.226Z,100402.56
2022-08-20T10:51:45.111Z,100399.66
2022-08-20T10:54:15.568Z,100393.13
2022-08-20T10:56:43.822Z,100393.09
2022-08-20T10:59:11.718Z,100392.19
2022-08-20T11:01:39.741Z,100394.88
2022-08-20T11:04:07.877Z,100390.25
2022-08-20T11:06:37.122Z,100391.81
2022-08-20T11:09:05.154Z,100390.22
2022-08-20T11:11:37.567Z,100392.56
2022-08-20T11:14:05.506Z,100385.72
2022-08-20T11:16:33.418Z,100379.41
2022-08-20T11:19:01.349Z,100380.78
2022-08-20T11:21:29.200Z,100381.25
2022-08-20T11:24:02.622Z,100386.25
2022-08-20T11:26:30.967Z,100379.59
2022-08-20T11:28:58.795Z,100377.75
2022-08-20T11:31:27.082Z,100372.88
2022-08-20T11:33:54.876Z,100371.38
2022-08-20T11:36:26.361Z,100365.97
2022-08-20T11:38:54.617Z,100364.97
2022-08-20T11:41:23.756Z,100364.25
2022-08-20T11:44:17.579Z,100365.19
2022-08-20T11:46:39.644Z,100357.44
2022-08-20T11:49:07.629Z,100348.44
2022-08-20T11:51:48.991Z,100365.19
2022-08-20T11:54:18.062Z,100361.38
2022-08-20T11:56:47.662Z,100362.59
2022-08-20T11:59:15.535Z,100355.81
2022-08-20T12:02:01.916Z,100364.16
2022-08-20T12:04:33.641Z,100355.94
2022-08-20T12:07:09.525Z,100361.84
2022-08-20T12:09:50.793Z,100357.53
2022-08-20T12:12:23.344Z,100358.22
2022-08-20T12:14:51.845Z,100364.00
2022-08-20T12:17:23.904Z,100364.47
2022-08-20T12:19:56.661Z,100358.50
2022-08-20T12:22:25.595Z,100351.75
2022-08-20T12:24:53.756Z,100351.69
2022-08-20T12:27:24.690Z,100351.88
2022-08-20T12:29:54.761Z,100334.78
2022-08-20T12:32:23.724Z,100338.16
2022-08-20T12:34:51.838Z,100345.06
2022-08-20T12:37:21.457Z,100339.34
2022-08-20T12:39:52.714Z,100329.72
2022-08-20T12:42:22.744Z,100339.66
2022-08-20T12:44:50.957Z,100333.34
2022-08-20T12:47:29.244Z,100332.56
2022-08-20T12:50:00.444Z,100332.00
2022-08-20T12:55:14.425Z,100330.94
2022-08-20T12:57:46.378Z,100342.81
2022-08-20T13:00:16.610Z,100338.66
2022-08-20T13:02:44.618Z,100346.66
2022-08-20T13:05:14.378Z,100340.88
2022-08-20T13:07:43.885Z,100340.34
2022-08-20T13:10:14.556Z,100334.28
2022-08-20T13:12:43.726Z,100337.84
2022-08-20T13:15:12.414Z,100332.06
2022-08-20T13:17:53.249Z,100340.34
2022-08-20T13:20:21.222Z,100336.75
2022-08-20T13:22:49.038Z,100334.81
2022-08-20T13:25:21.346Z,100334.25
2022-08-20T13:27:51.068Z,100323.53
2022-08-20T13:30:20.961Z,100315.78
2022-08-20T13:32:49.423Z,100321.84
2022-08-20T13:35:17.868Z,100309.16
2022-08-20T13:37:45.669Z,100318.25
2022-08-20T13:40:13.972Z,100309.72
2022-08-20T13:45:25.815Z,100301.16
2022-08-20T13:47:56.123Z,100305.81
2022-08-20T13:50:26.495Z,100307.47
2022-08-20T13:52:54.566Z,100298.91
2022-08-20T13:55:26.677Z,100304.72
2022-08-20T13:57:56.759Z,100301.63
2022-08-20T14:00:31.665Z,100298.06
2022-08-20T14:03:00.292Z,100295.59
2022-08-20T14:05:28.302Z,100289.28
2022-08-20T14:07:56.244Z,100291.19
2022-08-20T14:10:31.282Z,100293.97
2022-08-20T14:15:43.636Z,100302.00
2022-08-20T14:18:11.618Z,100301.16
2022-08-20T14:20:39.596Z,100290.94
2022-08-20T14:23:08.980Z,100295.06
2022-08-20T14:28:20.998Z,100297.59
2022-08-20T14:30:52.567Z,100304.19
2022-08-20T14:33:21.534Z,100302.81
2022-08-20T14:35:49.406Z,100298.69
2022-08-20T14:38:17.816Z,100296.47
2022-08-20T14:40:45.781Z,100293.72
2022-08-20T14:45:53.605Z,100293.97
2022-08-20T14:48:21.486Z,100301.16
2022-08-20T14:50:49.311Z,100300.59
2022-08-20T14:53:17.151Z,100295.63
2022-08-20T14:55:45.034Z,100291.50
2022-08-20T14:58:15.057Z,100297.00
2022-08-20T15:00:44.349Z,100301.69
2022-08-20T15:03:22.841Z,100291.75
2022-08-20T15:05:50.906Z,100292.88
2022-08-20T15:08:18.762Z,100290.69
2022-08-20T15:13:42.354Z,100286.78
2022-08-20T15:16:10.170Z,100293.69
2022-08-20T15:18:38.057Z,100288.69
2022-08-20T15:21:05.912Z,100288.16
2022-08-20T15:23:38.346Z,100285.34
2022-08-20T15:26:07.110Z,100285.63
2022-08-20T15:28:34.975Z,100285.91
2022-08-20T15:31:10.495Z,100292.16
2022-08-20T15:33:38.610Z,100279.75
2022-08-20T15:36:07.929Z,100281.88
2022-08-20T15:38:41.241Z,100279.78
2022-08-20T15:41:09.084Z,100284.69
2022-08-20T15:43:36.956Z,100282.63
2022-08-20T15:46:07.754Z,100277.78
2022-08-20T15:48:38.037Z,100276.66
2022-08-20T15:51:35.292Z,100284.97
2022-08-20T15:54:07.061Z,100276.59
2022-08-20T15:57:00.811Z,100287.72
2022-08-20T15:59:46.261Z,100287.88
2022-08-20T16:05:15.669Z,100283.81
2022-08-20T16:08:01.598Z,100277.63
2022-08-20T16:10:37.670Z,100279.69
2022-08-20T16:13:13.305Z,100279.97
2022-08-20T16:15:49.307Z,100287.00
2022-08-20T16:18:24.405Z,100290.53
2022-08-20T16:20:58.796Z,100295.13
2022-08-20T16:23:33.633Z,100299.44
2022-08-20T16:26:15.061Z,100298.06
2022-08-20T16:28:53.438Z,100291.66
2022-08-20T16:31:26.204Z,100297.66
2022-08-20T16:34:04.642Z,100309.41
2022-08-20T16:37:03.071Z,100306.50
2022-08-20T16:39:41.737Z,100300.94
2022-08-20T16:42:11.662Z,100303.25
2022-08-20T16:44:43.316Z,100299.06
2022-08-20T16:47:17.211Z,100293.28
2022-08-20T16:49:55.080Z,100305.84
2022-08-20T16:52:37.956Z,100301.44
2022-08-20T16:55:06.381Z,100301.59
2022-08-20T16:57:34.174Z,100300.34
2022-08-20T17:00:23.867Z,100301.09
2022-08-20T17:02:53.913Z,100302.69
2022-08-20T17:05:23.003Z,100304.75
2022-08-20T17:07:54.803Z,100305.50
2022-08-20T17:10:29.041Z,100298.84
2022-08-20T17:12:59.770Z,100303.63
2022-08-20T17:15:30.914Z,100304.63
2022-08-20T17:18:10.665Z,100305.38
2022-08-20T17:20:45.893Z,100302.19
2022-08-20T17:23:18.982Z,100304.50
2022-08-20T17:28:34.535Z,100320.03
2022-08-20T17:31:20.938Z,100317.22
2022-08-20T17:34:14.479Z,100316.72
2022-08-20T17:39:25.054Z,100311.63
2022-08-20T17:44:32.730Z,100315.25
2022-08-20T17:47:03.146Z,100320.63
2022-08-20T17:49:38.305Z,100323.25
2022-08-20T17:52:13.857Z,100326.94
2022-08-20T17:54:45.517Z,100328.63
2022-08-20T17:57:15.743Z,100333.16
2022-08-20T18:00:01.089Z,100333.25
2022-08-20T18:02:30.964Z,100330.06
2022-08-20T18:04:58.790Z,100328.81
2022-08-20T18:07:31.956Z,100328.97
2022-08-20T18:10:05.026Z,100336.69
2022-08-20T18:12:37.861Z,100340.00
2022-08-20T18:15:12.643Z,100341.91
2022-08-20T18:18:08.432Z,100344.72
2022-08-20T18:20:50.274Z,100348.63
2022-08-20T18:23:29.638Z,100347.50
2022-08-20T18:26:03.314Z,100355.59
2022-08-20T18:28:38.401Z,100354.22
2022-08-20T18:31:10.416Z,100363.00
2022-08-20T18:33:42.000Z,100365.81
2022-08-20T18:36:13.720Z,100370.75
2022-08-20T18:38:43.508Z,100367.50
2022-08-20T18:41:14.697Z,100370.75
2022-08-20T18:46:24.531Z,100369.25
2022-08-20T18:48:59.059Z,100373.94
2022-08-20T18:51:37.594Z,100384.09
2022-08-20T18:54:05.935Z,100388.19
2022-08-20T18:56:38.697Z,100389.78
2022-08-20T18:59:14.410Z,100390.88
2022-08-20T19:01:44.679Z,100393.03
2022-08-20T19:04:32.602Z,100399.22
2022-08-20T19:07:04.972Z,100397.59
2022-08-20T19:09:47.582Z,100406.50
2022-08-20T19:12:34.422Z,100408.25
2022-08-20T19:15:14.002Z,100417.72
2022-08-20T19:18:00.775Z,100414.66
2022-08-20T19:20:32.344Z,100411.53
2022-08-20T19:23:05.839Z,100414.06
2022-08-20T19:25:36.551Z,100416.19
2022-08-20T19:28:09.417Z,100420.44
2022-08-20T19:30:40.171Z,100423.81
2022-08-20T19:33:10.653Z,100430.75
2022-08-20T19:35:38.890Z,100430.78
2022-08-20T19:38:17.645Z,100432.69
2022-08-20T19:40:46.183Z,100442.78
2022-08-20T19:43:23.542Z,100439.03
2022-08-20T19:46:07.499Z,100447.84
2022-08-20T19:48:49.325Z,100441.59
2022-08-20T19:51:27.689Z,100450.16
2022-08-20T19:53:55.854Z,100449.34
2022-08-20T19:56:26.475Z,100446.41
2022-08-20T19:59:02.899Z,100449.16
2022-08-20T20:01:31.768Z,100450.00
2022-08-20T20:04:03.729Z,100459.22
2022-08-20T20:06:34.872Z,100464.25
2022-08-20T20:09:07.494Z,100455.25
2022-08-20T20:11:37.675Z,100460.69
2022-08-20T20:14:08.690Z,100463.19
2022-08-20T20:16:38.329Z,100457.56
2022-08-20T20:19:28.093Z,100463.84
2022-08-20T20:22:23.717Z,100461.91
2022-08-20T20:25:03.783Z,100458.13
2022-08-20T20:27:33.060Z,100460.63
2022-08-20T20:30:03.950Z,100450.38
2022-08-20T20:32:33.872Z,100458.94
2022-08-20T20:35:05.540Z,100454.97
2022-08-20T20:37:49.202Z,100452.88
2022-08-20T20:40:25.395Z,100451.81
2022-08-20T20:43:02.902Z,100456.41
2022-08-20T20:48:21.263Z,100457.63
2022-08-20T20:50:51.103Z,100463.69
2022-08-20T20:53:31.446Z,100457.00
2022-08-20T20:56:31.540Z,100461.34
2022-08-20T20:59:05.333Z,100456.50
2022-08-20T21:01:48.767Z,100465.03
2022-08-20T21:04:19.641Z,100466.22
2022-08-20T21:06:48.031Z,100469.13
2022-08-20T21:09:16.641Z,100467.78
2022-08-20T21:11:44.550Z,100481.16
2022-08-20T21:14:12.386Z,100477.78
2022-08-20T21:19:22.003Z,100479.94
2022-08-20T21:21:49.815Z,100482.44
2022-08-20T21:24:17.654Z,100489.47
2022-08-20T21:27:01.544Z,100488.34
2022-08-20T21:29:32.629Z,100496.63
2022-08-20T21:34:45.587Z,100496.00
2022-08-20T21:37:14.317Z,100497.19
2022-08-20T21:39:42.650Z,100500.50
2022-08-20T21:42:28.694Z,100500.28
2022-08-20T21:44:57.837Z,100509.16
2022-08-20T21:47:26.533Z,100502.66
2022-08-20T21:49:56.325Z,100503.88
2022-08-20T21:52:24.124Z,100504.88
2022-08-20T21:54:53.249Z,100507.03
2022-08-20T21:57:24.460Z,100494.66
2022-08-20T21:59:53.109Z,100501.88
2022-08-20T22:02:21.793Z,100500.97
2022-08-20T22:04:53.876Z,100489.00
2022-08-20T22:07:31.201Z,100487.88
2022-08-20T22:09:59.134Z,100493.47
2022-08-20T22:12:27.705Z,100488.91
2022-08-20T22:14:55.658Z,100489.13
2022-08-20T22:17:23.847Z,100481.53
2022-08-20T22:19:51.755Z,100490.88
2022-08-20T22:22:26.028Z,100491.84
2022-08-20T22:24:53.947Z,100491.94
2022-08-20T22:27:21.779Z,100488.97
2022-08-20T22:32:35.137Z,100497.56
2022-08-20T22:35:20.256Z,100497.09
2022-08-20T22:37:49.464Z,100499.53
2022-08-20T22:40:17.376Z,100503.44
2022-08-20T22:42:45.355Z,100503.84
2022-08-20T22:45:14.885Z,100501.66
2022-08-20T22:47:44.290Z,100509.72
2022-08-20T22:50:13.950Z,100507.34
2022-08-20T22:52:43.493Z,100503.81
2022-08-20T22:55:13.149Z,100505.69
2022-08-20T22:57:41.206Z,100513.97
2022-08-20T23:00:13.599Z,100509.41
2022-08-20T23:02:42.762Z,100512.13
2022-08-20T23:05:15.266Z,100509.94
2022-08-20T23:07:42.960Z,100518.44
2022-08-20T23:10:13.438Z,100513.56
2022-08-20T23:12:41.722Z,100513.31
2022-08-20T23:15:10.563Z,100506.09
2022-08-20T23:20:20.929Z,100511.47
2022-08-20T23:22:48.728Z,100506.78
2022-08-20T23:25:18.128Z,100503.63
2022-08-20T23:27:49.450Z,100506.03
2022-08-20T23:30:19.219Z,100503.50
2022-08-20T23:32:47.257Z,100499.47
2022-08-20T23:35:15.588Z,100503.09
2022-08-20T23:37:46.171Z,100503.81
2022-08-20T23:40:15.737Z,100504.91
2022-08-20T23:42:45.328Z,100496.47
2022-08-20T23:45:13.976Z,100503.06
2022-08-20T23:47:42.042Z,100497.00
2022-08-20T23:50:13.065Z,100494.16
2022-08-20T23:52:41.192Z,100495.38
2022-08-20T23:55:10.185Z,100496.44
